createdAt,value
2023-04-17T00:01:24.854Z,97880.08
2023-04-17T00:03:58.179Z,97876.80
2023-04-17T00:06:30.214Z,97875.93
2023-04-17T00:09:01.282Z,97876.89
2023-04-17T00:11:30.856Z,97874.19
2023-04-17T00:14:02.187Z,97868.67
2023-04-17T00:16:33.539Z,97869.42
2023-04-17T00:19:04.764Z,97869.15
2023-04-17T00:21:38.790Z,97865.84
2023-04-17T00:24:10.185Z,97866.48
2023-04-17T00:26:41.308Z,97870.25
2023-04-17T00:29:12.646Z,97870.19
2023-04-17T00:31:44.040Z,97871.10
2023-04-17T00:34:18.930Z,97872.97
2023-04-17T00:36:50.399Z,97878.00
2023-04-17T00:39:19.810Z,97874.46
2023-04-17T00:41:50.742Z,97878.86
2023-04-17T00:44:21.687Z,97878.97
2023-04-17T00:46:52.833Z,97875.30
2023-04-17T00:49:24.749Z,97877.58
2023-04-17T00:51:56.237Z,97879.55
2023-04-17T00:54:27.495Z,97877.48
2023-04-17T00:56:58.286Z,97879.23
2023-04-17T00:59:29.682Z,97880.48
2023-04-17T01:02:01.241Z,97883.65
2023-04-17T01:04:33.402Z,97884.64
2023-04-17T01:07:05.220Z,97883.55
2023-04-17T01:09:36.639Z,97885.77
2023-04-17T01:12:21.490Z,97883.17
2023-04-17T01:14:54.121Z,97884.13
2023-04-17T01:17:27.835Z,97883.69
2023-04-17T01:20:00.179Z,97881.67
2023-04-17T01:22:32.305Z,97882.05
2023-04-17T01:25:03.357Z,97882.61
2023-04-17T01:27:35.305Z,97884.70
2023-04-17T01:30:07.465Z,97881.83
2023-04-17T01:32:39.089Z,97883.50
2023-04-17T01:35:11.470Z,97881.31
2023-04-17T01:37:42.721Z,97879.92
2023-04-17T01:40:14.672Z,97883.52
2023-04-17T01:42:45.709Z,97887.57
2023-04-17T01:45:16.828Z,97884.42
2023-04-17T01:47:47.928Z,97885.64
2023-04-17T01:50:19.278Z,97886.64
2023-04-17T01:52:50.343Z,97887.58
2023-04-17T01:55:21.732Z,97888.17
2023-04-17T01:57:55.205Z,97885.63
2023-04-17T02:00:26.693Z,97887.90
2023-04-17T02:02:58.094Z,97888.64
2023-04-17T02:05:29.527Z,97888.64
2023-04-17T02:08:00.480Z,97888.76
2023-04-17T02:10:31.779Z,97894.46
2023-04-17T02:13:02.849Z,97895.32
2023-04-17T02:15:34.073Z,97893.33
2023-04-17T02:18:06.217Z,97896.77
2023-04-17T02:20:37.885Z,97900.63
2023-04-17T02:23:09.396Z,97898.93
2023-04-17T02:25:40.420Z,97900.35
2023-04-17T02:28:12.393Z,97899.11
2023-04-17T02:30:43.427Z,97896.52
2023-04-17T02:33:14.480Z,97896.48
2023-04-17T02:35:45.925Z,97896.77
2023-04-17T02:38:17.098Z,97892.90
2023-04-17T02:40:48.431Z,97891.61
2023-04-17T02:43:19.561Z,97890.14
2023-04-17T02:45:51.421Z,97889.30
2023-04-17T02:48:22.454Z,97893.09
2023-04-17T02:50:53.399Z,97896.50
2023-04-17T02:53:24.386Z,97896.82
2023-04-17T02:55:55.383Z,97892.10
2023-04-17T02:58:26.411Z,97893.17
2023-04-17T03:01:03.971Z,97894.13
2023-04-17T03:03:38.737Z,97895.75
2023-04-17T03:06:10.840Z,97895.73
2023-04-17T03:08:41.780Z,97897.55
2023-04-17T03:11:12.808Z,97897.04
2023-04-17T03:13:44.688Z,97897.40
2023-04-17T03:16:15.640Z,97898.75
2023-04-17T03:18:46.721Z,97898.88
2023-04-17T03:21:17.728Z,97899.70
2023-04-17T03:23:48.721Z,97900.91
2023-04-17T03:26:19.830Z,97902.14
2023-04-17T03:28:50.748Z,97902.19
2023-04-17T03:31:24.558Z,97901.10
2023-04-17T03:33:55.532Z,97907.08
2023-04-17T03:36:27.407Z,97905.67
2023-04-17T03:38:59.617Z,97903.47
2023-04-17T03:41:30.612Z,97905.85
2023-04-17T03:44:01.761Z,97907.75
2023-04-17T03:46:32.888Z,97910.77
2023-04-17T03:49:02.630Z,97917.71
2023-04-17T03:51:33.817Z,97920.45
2023-04-17T03:54:03.514Z,97919.92
2023-04-17T03:56:34.420Z,97924.02
2023-04-17T03:59:05.974Z,97928.00
2023-04-17T04:01:38.726Z,97928.90
2023-04-17T04:04:10.364Z,97927.35
2023-04-17T04:06:42.883Z,97930.41
2023-04-17T04:09:13.906Z,97932.15
2023-04-17T04:11:45.122Z,97930.95
2023-04-17T04:14:16.757Z,97931.45
2023-04-17T04:16:47.853Z,97934.55
2023-04-17T04:19:19.004Z,97932.91
2023-04-17T04:21:49.771Z,97931.69
2023-04-17T04:24:21.257Z,97935.14
2023-04-17T04:26:52.662Z,97932.56
2023-04-17T04:29:25.767Z,97930.94
2023-04-17T04:31:57.522Z,97931.10
2023-04-17T04:34:30.089Z,97934.00
2023-04-17T04:37:01.486Z,97934.94
2023-04-17T04:39:32.574Z,97939.71
2023-04-17T04:42:06.289Z,97937.80
2023-04-17T04:44:37.697Z,97938.95
2023-04-17T04:47:09.137Z,97941.33
2023-04-17T04:49:39.959Z,97940.66
2023-04-17T04:52:11.465Z,97942.09
2023-04-17T04:54:40.843Z,97941.33
2023-04-17T04:57:12.156Z,97943.50
2023-04-17T04:59:43.360Z,97944.96
2023-04-17T05:02:14.388Z,97944.17
2023-04-17T05:04:44.164Z,97945.80
2023-04-17T05:07:15.622Z,97949.66
2023-04-17T05:09:46.720Z,97951.98
2023-04-17T05:12:17.778Z,97958.41
2023-04-17T05:14:49.207Z,97958.57
2023-04-17T05:17:18.828Z,97959.39
2023-04-17T05:19:49.739Z,97958.39
2023-04-17T05:22:21.752Z,97957.41
2023-04-17T05:24:53.008Z,97957.84
2023-04-17T05:27:23.912Z,97960.70
2023-04-17T05:29:54.930Z,97959.81
2023-04-17T05:32:26.140Z,97963.55
2023-04-17T05:34:55.806Z,97962.86
2023-04-17T05:37:26.863Z,97961.05
2023-04-17T05:40:00.148Z,97960.58
2023-04-17T05:42:31.259Z,97958.63
2023-04-17T05:45:02.536Z,97964.27
2023-04-17T05:47:33.599Z,97964.94
2023-04-17T05:50:05.134Z,97963.17
2023-04-17T05:52:38.718Z,97967.66
2023-04-17T05:55:11.859Z,97967.60
2023-04-17T05:57:42.853Z,97968.00
2023-04-17T06:00:17.266Z,97966.26
2023-04-17T06:02:48.564Z,97966.36
2023-04-17T06:05:18.163Z,97962.98
2023-04-17T06:07:50.313Z,97962.36
2023-04-17T06:10:21.759Z,97962.95
2023-04-17T06:12:52.754Z,97962.89
2023-04-17T06:15:23.925Z,97964.05
2023-04-17T06:17:55.131Z,97966.39
2023-04-17T06:20:26.460Z,97965.05
2023-04-17T06:22:57.541Z,97965.23
2023-04-17T06:25:28.511Z,97966.31
2023-04-17T06:27:59.589Z,97967.30
2023-04-17T06:30:30.689Z,97968.96
2023-04-17T06:33:01.731Z,97967.60
2023-04-17T06:35:33.297Z,97967.70
2023-04-17T06:38:04.439Z,97972.80
2023-04-17T06:40:34.086Z,97973.40
2023-04-17T06:43:05.195Z,97975.47
2023-04-17T06:45:35.222Z,97972.81
2023-04-17T06:48:08.514Z,97974.59
2023-04-17T06:50:39.865Z,97970.17
2023-04-17T06:53:10.824Z,97976.11
2023-04-17T06:55:41.774Z,97975.90
2023-04-17T06:58:12.656Z,97971.16
2023-04-17T07:00:43.666Z,97973.15
2023-04-17T07:03:15.140Z,97976.92
2023-04-17T07:05:47.725Z,97980.17
2023-04-17T07:08:22.375Z,97978.52
2023-04-17T07:10:54.682Z,97983.59
2023-04-17T07:13:25.615Z,97982.35
2023-04-17T07:15:57.781Z,97979.89
2023-04-17T07:18:29.580Z,97983.23
2023-04-17T07:21:01.542Z,97982.98
2023-04-17T07:23:33.163Z,97984.61
2023-04-17T07:26:02.615Z,97988.27
2023-04-17T07:28:34.234Z,97986.05
2023-04-17T07:31:08.238Z,97983.22
2023-04-17T07:33:40.571Z,97987.98
2023-04-17T07:36:13.461Z,97987.08
2023-04-17T07:38:44.473Z,97983.16
2023-04-17T07:41:13.944Z,97984.74
2023-04-17T07:43:44.889Z,97984.48
2023-04-17T07:46:16.230Z,97982.35
2023-04-17T07:48:47.639Z,97985.02
2023-04-17T07:51:18.769Z,97987.20
2023-04-17T07:53:49.805Z,97985.77
2023-04-17T07:56:20.921Z,97986.86
2023-04-17T07:58:51.890Z,97992.98
2023-04-17T08:01:22.933Z,97990.06
2023-04-17T08:03:55.692Z,97992.65
2023-04-17T08:06:26.801Z,97992.11
2023-04-17T08:08:59.798Z,97992.98
2023-04-17T08:11:31.174Z,97996.46
2023-04-17T08:14:02.331Z,97997.51
2023-04-17T08:16:33.956Z,98001.80
2023-04-17T08:19:05.155Z,98004.36
2023-04-17T08:21:36.204Z,98003.77
2023-04-17T08:24:08.137Z,98003.66
2023-04-17T08:26:39.238Z,98005.14
2023-04-17T08:29:10.587Z,98000.65
2023-04-17T08:31:42.454Z,98000.14
2023-04-17T08:34:15.366Z,97997.88
2023-04-17T08:36:48.008Z,97998.20
2023-04-17T08:39:19.656Z,97996.18
2023-04-17T08:42:00.518Z,97996.40
2023-04-17T08:44:31.914Z,97996.85
2023-04-17T08:47:04.652Z,98000.48
2023-04-17T08:49:37.304Z,98000.81
2023-04-17T08:52:09.916Z,97998.41
2023-04-17T08:54:41.367Z,97998.51
2023-04-17T08:57:12.632Z,98000.03
2023-04-17T08:59:45.894Z,97997.36
2023-04-17T09:02:17.148Z,98000.34
2023-04-17T09:04:48.962Z,97994.64
2023-04-17T09:07:29.313Z,98000.13
2023-04-17T09:10:00.466Z,97998.28
2023-04-17T09:12:31.605Z,97997.70
2023-04-17T09:15:15.615Z,97997.33
2023-04-17T09:17:46.549Z,97995.05
2023-04-17T09:20:17.453Z,97993.36
2023-04-17T09:22:49.023Z,97995.48
2023-04-17T09:25:23.331Z,97995.22
2023-04-17T09:27:56.498Z,97993.22
2023-04-17T09:30:28.868Z,97996.20
2023-04-17T09:33:07.846Z,97990.34
2023-04-17T09:35:40.179Z,97992.18
2023-04-17T09:38:11.908Z,97988.86
2023-04-17T09:40:45.328Z,97993.66
2023-04-17T09:43:16.295Z,97987.86
2023-04-17T09:45:47.681Z,97992.47
2023-04-17T09:48:19.528Z,97997.92
2023-04-17T09:50:51.590Z,97989.48
2023-04-17T09:53:23.744Z,97994.89
2023-04-17T09:55:55.923Z,97994.06
2023-04-17T09:58:27.350Z,97994.85
2023-04-17T10:00:58.409Z,97997.90
2023-04-17T10:03:30.493Z,97996.47
2023-04-17T10:06:03.162Z,97997.66
2023-04-17T10:08:35.015Z,97998.70
2023-04-17T10:11:09.208Z,97998.98
2023-04-17T10:13:42.909Z,97996.59
2023-04-17T10:16:13.901Z,97997.03
2023-04-17T10:18:45.024Z,97994.41
2023-04-17T10:21:26.712Z,97996.68
2023-04-17T10:23:57.972Z,97999.71
2023-04-17T10:26:42.510Z,97992.94
2023-04-17T10:29:13.780Z,97984.21
2023-04-17T10:32:18.612Z,97978.59
2023-04-17T10:34:49.860Z,97972.09
2023-04-17T10:37:23.141Z,97965.58
2023-04-17T10:40:02.884Z,97966.85
2023-04-17T10:42:34.013Z,97971.02
2023-04-17T10:45:19.097Z,97971.26
2023-04-17T10:48:00.943Z,97973.08
2023-04-17T10:50:32.417Z,97968.27
2023-04-17T10:53:03.466Z,97969.60
2023-04-17T10:55:34.742Z,97967.89
2023-04-17T10:58:15.415Z,97964.91
2023-04-17T11:00:54.427Z,97963.85
2023-04-17T11:03:26.558Z,97963.05
2023-04-17T11:06:00.410Z,97962.23
2023-04-17T11:08:31.477Z,97963.64
2023-04-17T11:11:02.543Z,97959.28
2023-04-17T11:13:36.665Z,97965.48
2023-04-17T11:16:08.338Z,97965.23
2023-04-17T11:18:40.228Z,97962.81
2023-04-17T11:21:14.770Z,97964.75
2023-04-17T11:23:52.604Z,97961.43
2023-04-17T11:26:23.653Z,97964.68
2023-04-17T11:28:54.750Z,97959.92
2023-04-17T11:31:26.563Z,97961.31
2023-04-17T11:33:59.459Z,97960.52
2023-04-17T11:36:31.264Z,97959.48
2023-04-17T11:39:02.377Z,97959.91
2023-04-17T11:41:41.400Z,97953.41
2023-04-17T11:44:13.452Z,97953.52
2023-04-17T11:46:44.660Z,97957.14
2023-04-17T11:49:16.003Z,97960.91
2023-04-17T11:51:48.746Z,97960.42
2023-04-17T11:54:28.068Z,97958.87
2023-04-17T11:57:04.473Z,97959.75
2023-04-17T11:59:36.941Z,97960.14
2023-04-17T12:02:09.238Z,97956.92
2023-04-17T12:04:41.374Z,97956.40
2023-04-17T12:07:25.133Z,97954.84
2023-04-17T12:09:59.532Z,97955.30
2023-04-17T12:12:31.301Z,97953.96
2023-04-17T12:15:03.142Z,97958.67
2023-04-17T12:17:35.389Z,97951.63
2023-04-17T12:20:07.866Z,97954.61
2023-04-17T12:22:39.049Z,97948.44
2023-04-17T12:25:11.585Z,97951.77
2023-04-17T12:27:42.669Z,97950.90
2023-04-17T12:30:16.501Z,97953.59
2023-04-17T12:32:49.077Z,97953.27
2023-04-17T12:35:20.722Z,97955.08
2023-04-17T12:37:52.342Z,97952.67
2023-04-17T12:40:26.124Z,97954.15
2023-04-17T12:42:57.291Z,97951.70
2023-04-17T12:45:28.447Z,97950.46
2023-04-17T12:47:59.688Z,97948.03
2023-04-17T12:50:31.224Z,97946.45
2023-04-17T12:53:02.283Z,97950.16
2023-04-17T12:55:33.289Z,97949.61
2023-04-17T12:58:04.411Z,97951.39
2023-04-17T13:00:35.732Z,97942.90
2023-04-17T13:03:07.709Z,97941.19
2023-04-17T13:05:39.580Z,97941.95
2023-04-17T13:08:15.011Z,97946.11
2023-04-17T13:10:46.169Z,97946.89
2023-04-17T13:13:17.155Z,97944.45
2023-04-17T13:15:48.832Z,97947.11
2023-04-17T13:18:19.794Z,97944.02
2023-04-17T13:20:51.037Z,97949.41
2023-04-17T13:23:21.999Z,97952.67
2023-04-17T13:25:53.087Z,97947.46
2023-04-17T13:28:24.156Z,97943.73
2023-04-17T13:30:55.251Z,97946.86
2023-04-17T13:33:27.288Z,97946.84
2023-04-17T13:35:58.919Z,97948.93
2023-04-17T13:38:30.569Z,97943.23
2023-04-17T13:41:01.726Z,97946.58
2023-04-17T13:43:33.106Z,97949.56
2023-04-17T13:46:04.748Z,97941.39
2023-04-17T13:48:35.747Z,97939.27
2023-04-17T13:51:08.413Z,97939.86
2023-04-17T13:53:43.393Z,97943.25
2023-04-17T13:56:15.135Z,97946.05
2023-04-17T13:58:47.948Z,97941.47
2023-04-17T14:01:18.967Z,97938.77
2023-04-17T14:03:50.258Z,97946.83
2023-04-17T14:06:21.745Z,97943.02
2023-04-17T14:08:52.974Z,97944.84
2023-04-17T14:11:24.669Z,97937.63
2023-04-17T14:13:56.054Z,97934.94
2023-04-17T14:16:27.665Z,97932.65
2023-04-17T14:19:06.339Z,97932.23
2023-04-17T14:21:44.365Z,97931.54
2023-04-17T14:24:15.340Z,97933.70
2023-04-17T14:26:46.371Z,97935.48
2023-04-17T14:29:17.401Z,97931.23
2023-04-17T14:31:48.504Z,97930.73
2023-04-17T14:34:19.871Z,97926.84
2023-04-17T14:36:51.874Z,97938.75
2023-04-17T14:39:24.826Z,97937.44
2023-04-17T14:41:57.469Z,97940.66
2023-04-17T14:44:29.316Z,97941.14
2023-04-17T14:47:00.686Z,97937.10
2023-04-17T14:49:33.124Z,97943.75
2023-04-17T14:52:04.047Z,97941.95
2023-04-17T14:54:35.528Z,97942.71
2023-04-17T14:57:06.968Z,97944.02
2023-04-17T14:59:38.231Z,97945.27
2023-04-17T15:02:09.510Z,97943.48
2023-04-17T15:04:42.398Z,97949.48
2023-04-17T15:07:13.934Z,97953.30
2023-04-17T15:09:46.479Z,97950.95
2023-04-17T15:12:17.592Z,97948.00
2023-04-17T15:14:51.143Z,97945.12
2023-04-17T15:17:22.266Z,97945.22
2023-04-17T15:19:55.787Z,97944.59
2023-04-17T15:22:26.911Z,97944.61
2023-04-17T15:25:01.132Z,97947.77
2023-04-17T15:27:32.897Z,97953.45
2023-04-17T15:30:06.678Z,97956.45
2023-04-17T15:32:37.858Z,97957.95
2023-04-17T15:35:10.000Z,97961.23
2023-04-17T15:37:41.457Z,97960.80
2023-04-17T15:40:14.212Z,97972.30
2023-04-17T15:42:45.457Z,97973.52
2023-04-17T15:45:16.569Z,97982.54
2023-04-17T15:47:47.562Z,97982.61
2023-04-17T15:50:19.162Z,97976.63
2023-04-17T15:52:50.274Z,97981.41
2023-04-17T15:55:21.804Z,97984.02
2023-04-17T15:57:52.935Z,97979.27
2023-04-17T16:00:24.616Z,97981.98
2023-04-17T16:02:55.804Z,97990.20
2023-04-17T16:05:26.982Z,97979.91
2023-04-17T16:07:58.164Z,97987.34
2023-04-17T16:10:29.416Z,97988.70
2023-04-17T16:13:00.423Z,97986.73
2023-04-17T16:15:31.605Z,97982.29
2023-04-17T16:18:04.645Z,97983.97
2023-04-17T16:20:36.215Z,97985.05
2023-04-17T16:23:07.699Z,97985.63
2023-04-17T16:25:39.053Z,97988.67
2023-04-17T16:28:10.109Z,97992.11
2023-04-17T16:30:41.238Z,97990.53
2023-04-17T16:33:12.433Z,97994.85
2023-04-17T16:35:43.506Z,97988.16
2023-04-17T16:38:14.468Z,97992.99
2023-04-17T16:40:45.741Z,97994.79
2023-04-17T16:43:17.165Z,97990.63
2023-04-17T16:45:48.296Z,97991.50
2023-04-17T16:48:19.673Z,97989.22
2023-04-17T16:50:50.828Z,97994.29
2023-04-17T16:53:21.985Z,97995.84
2023-04-17T16:55:53.777Z,97999.11
2023-04-17T16:58:26.056Z,97998.16
2023-04-17T17:00:57.710Z,97997.61
2023-04-17T17:03:28.897Z,97998.64
2023-04-17T17:06:03.412Z,98002.02
2023-04-17T17:08:34.526Z,98002.77
2023-04-17T17:11:05.952Z,98005.35
2023-04-17T17:13:37.173Z,98005.84
2023-04-17T17:16:08.355Z,98000.90
2023-04-17T17:18:39.490Z,98005.67
2023-04-17T17:21:11.373Z,98000.30
2023-04-17T17:23:43.350Z,98006.97
2023-04-17T17:26:14.745Z,98007.95
2023-04-17T17:28:51.245Z,98009.73
2023-04-17T17:31:22.735Z,98010.99
2023-04-17T17:33:55.262Z,98015.08
2023-04-17T17:36:26.349Z,98016.21
2023-04-17T17:38:58.386Z,98020.83
2023-04-17T17:41:29.905Z,98021.80
2023-04-17T17:44:00.853Z,98022.95
2023-04-17T17:46:34.198Z,98025.16
2023-04-17T17:49:05.599Z,98028.96
2023-04-17T17:51:36.529Z,98026.45
2023-04-17T17:54:08.065Z,98024.89
2023-04-17T17:56:39.154Z,98030.66
2023-04-17T17:59:10.428Z,98030.85
2023-04-17T18:01:41.696Z,98028.21
2023-04-17T18:04:13.376Z,98025.82
2023-04-17T18:06:44.544Z,98027.43
2023-04-17T18:09:15.618Z,98027.19
2023-04-17T18:11:46.747Z,98031.75
2023-04-17T18:14:15.999Z,98031.63
2023-04-17T18:16:48.544Z,98036.42
2023-04-17T18:19:19.659Z,98041.17
2023-04-17T18:21:54.196Z,98040.98
2023-04-17T18:24:26.166Z,98045.87
2023-04-17T18:26:57.437Z,98047.54
2023-04-17T18:29:28.573Z,98052.82
2023-04-17T18:32:00.216Z,98062.89
2023-04-17T18:34:31.129Z,98063.27
2023-04-17T18:37:01.270Z,98068.57
2023-04-17T18:39:32.483Z,98069.84
2023-04-17T18:42:03.339Z,98075.37
2023-04-17T18:44:34.546Z,98075.68
2023-04-17T18:47:05.442Z,98081.05
2023-04-17T18:49:36.978Z,98075.20
2023-04-17T18:52:08.613Z,98075.29
2023-04-17T18:54:40.098Z,98069.36
2023-04-17T18:57:11.410Z,98080.42
2023-04-17T18:59:43.332Z,98081.96
2023-04-17T19:02:14.959Z,98080.78
2023-04-17T19:04:46.013Z,98079.91
2023-04-17T19:07:17.997Z,98081.00
2023-04-17T19:09:49.117Z,98083.93
2023-04-17T19:12:20.468Z,98085.67
2023-04-17T19:14:51.979Z,98090.64
2023-04-17T19:17:23.262Z,98090.92
2023-04-17T19:19:54.609Z,98088.98
2023-04-17T19:22:26.160Z,98084.79
2023-04-17T19:24:57.384Z,98086.55
2023-04-17T19:27:28.517Z,98084.50
2023-04-17T19:29:59.852Z,98078.64
2023-04-17T19:32:32.392Z,98079.76
2023-04-17T19:35:03.552Z,98077.17
2023-04-17T19:37:35.077Z,98082.02
2023-04-17T19:40:21.447Z,98080.58
2023-04-17T19:43:01.344Z,98085.48
2023-04-17T19:45:34.773Z,98087.84
2023-04-17T19:48:06.542Z,98093.40
2023-04-17T19:50:40.424Z,98095.00
2023-04-17T19:53:13.641Z,98095.66
2023-04-17T19:55:44.778Z,98094.47
2023-04-17T19:58:15.871Z,98096.02
2023-04-17T20:00:47.688Z,98099.01
2023-04-17T20:03:19.425Z,98100.74
2023-04-17T20:05:50.886Z,98096.75
2023-04-17T20:08:22.189Z,98096.02
2023-04-17T20:10:53.345Z,98097.04
2023-04-17T20:13:24.404Z,98096.98
2023-04-17T20:15:57.198Z,98092.48
2023-04-17T20:18:28.756Z,98090.02
2023-04-17T20:21:01.320Z,98089.70
2023-04-17T20:23:32.655Z,98088.03
2023-04-17T20:26:03.984Z,98087.02
2023-04-17T20:28:35.167Z,98083.86
2023-04-17T20:31:06.943Z,98082.45
2023-04-17T20:33:37.979Z,98084.32
2023-04-17T20:36:08.011Z,98081.49
2023-04-17T20:38:39.192Z,98079.95
2023-04-17T20:41:10.369Z,98077.63
2023-04-17T20:43:41.886Z,98077.05
2023-04-17T20:46:12.769Z,98076.78
2023-04-17T20:48:45.146Z,98075.13
2023-04-17T20:51:18.199Z,98077.26
2023-04-17T20:53:50.994Z,98077.45
2023-04-17T20:56:33.119Z,98079.91
2023-04-17T20:59:16.295Z,98083.55
2023-04-17T21:02:00.922Z,98084.98
2023-04-17T21:04:37.218Z,98083.01
2023-04-17T21:07:15.336Z,98086.82
2023-04-17T21:09:53.578Z,98084.89
2023-04-17T21:12:34.347Z,98088.63
2023-04-17T21:15:14.145Z,98090.59
2023-04-17T21:17:47.611Z,98090.67
2023-04-17T21:20:19.799Z,98092.67
2023-04-17T21:22:51.655Z,98095.39
2023-04-17T21:25:32.455Z,98096.91
2023-04-17T21:28:08.441Z,98098.21
2023-04-17T21:30:41.932Z,98096.34
2023-04-17T21:33:19.607Z,98098.19
2023-04-17T21:35:53.275Z,98102.14
2023-04-17T21:38:24.366Z,98103.98
2023-04-17T21:40:55.450Z,98092.67
2023-04-17T21:43:27.574Z,98093.31
2023-04-17T21:45:59.022Z,98096.44
2023-04-17T21:48:30.546Z,98101.70
2023-04-17T21:51:05.354Z,98100.04
2023-04-17T21:53:37.834Z,98102.55
2023-04-17T21:56:09.672Z,98098.19
2023-04-17T21:58:40.698Z,98103.80
2023-04-17T22:01:09.984Z,98102.34
2023-04-17T22:03:41.003Z,98101.68
2023-04-17T22:06:12.488Z,98100.40
2023-04-17T22:08:43.425Z,98095.64
2023-04-17T22:11:12.831Z,98100.66
2023-04-17T22:13:45.099Z,98101.10
2023-04-17T22:16:19.364Z,98104.05
2023-04-17T22:18:50.459Z,98101.54
2023-04-17T22:21:19.786Z,98109.09
2023-04-17T22:23:51.019Z,98109.34
2023-04-17T22:26:21.550Z,98104.69
2023-04-17T22:28:52.373Z,98110.75
2023-04-17T22:31:23.374Z,98105.45
2023-04-17T22:33:54.221Z,98109.92
2023-04-17T22:36:24.942Z,98113.55
2023-04-17T22:38:56.010Z,98113.95
2023-04-17T22:41:27.071Z,98118.27
2023-04-17T22:43:56.470Z,98116.77
2023-04-17T22:46:27.364Z,98115.80
2023-04-17T22:48:57.862Z,98120.23
2023-04-17T22:51:29.508Z,98117.46
2023-04-17T22:54:19.189Z,98117.52
2023-04-17T22:56:51.798Z,98115.41
2023-04-17T22:59:22.591Z,98117.92
2023-04-17T23:01:53.938Z,98116.83
2023-04-17T23:04:25.980Z,98114.53
2023-04-17T23:06:57.039Z,98111.92
2023-04-17T23:09:28.021Z,98110.59
2023-04-17T23:11:57.794Z,98109.40
2023-04-17T23:14:28.821Z,98105.84
2023-04-17T23:17:00.305Z,98099.39
2023-04-17T23:19:31.312Z,98097.73
2023-04-17T23:22:03.014Z,98095.77
2023-04-17T23:24:37.987Z,98091.59
2023-04-17T23:27:09.174Z,98089.83
2023-04-17T23:29:40.201Z,98090.94
2023-04-17T23:32:11.859Z,98087.22
2023-04-17T23:34:48.456Z,98083.65
2023-04-17T23:37:19.538Z,98081.98
2023-04-17T23:39:50.814Z,98081.30
2023-04-17T23:42:20.305Z,98077.80
2023-04-17T23:44:51.316Z,98074.92
2023-04-17T23:47:22.409Z,98074.83
2023-04-17T23:49:53.617Z,98074.58
2023-04-17T23:52:24.589Z,98073.06
2023-04-17T23:54:55.883Z,98070.91
2023-04-17T23:57:27.097Z,98071.44
2023-04-17T23:59:58.203Z,98068.98
